createdAt,value
2017-05-03T00:00:04.868Z,0
2017-05-03T00:01:15.400Z,0
2017-05-03T00:02:25.697Z,0
2017-05-03T00:03:35.676Z,0
2017-05-03T00:04:45.965Z,0
2017-05-03T00:05:56.253Z,0
2017-05-03T00:07:06.787Z,0
2017-05-03T00:08:17.080Z,0
2017-05-03T00:09:27.061Z,0
2017-05-03T00:10:37.346Z,0
2017-05-03T00:11:47.634Z,0
2017-05-03T00:12:58.174Z,0
2017-05-03T00:14:07.529Z,0
2017-05-03T00:15:17.832Z,0
2017-05-03T00:16:28.112Z,0
2017-05-03T00:17:38.085Z,0
2017-05-03T00:18:48.642Z,0
2017-05-03T00:19:58.934Z,0
2017-05-03T00:21:09.216Z,0
2017-05-03T00:22:19.497Z,0
2017-05-03T00:23:29.781Z,0
2017-05-03T00:24:40.312Z,0
2017-05-03T00:25:50.592Z,0
2017-05-03T00:27:00.561Z,0
2017-05-03T00:28:10.842Z,0
2017-05-03T00:29:21.136Z,0
2017-05-03T00:30:31.361Z,0
2017-05-03T00:31:41.642Z,0
2017-05-03T00:32:51.927Z,0
2017-05-03T00:34:02.212Z,0
2017-05-03T00:35:12.808Z,0
2017-05-03T00:36:23.340Z,0
2017-05-03T00:37:33.626Z,0
2017-05-03T00:38:45.096Z,0
2017-05-03T00:39:55.368Z,0
2017-05-03T00:41:05.333Z,0
2017-05-03T00:42:15.564Z,0
2017-05-03T00:43:25.869Z,0
2017-05-03T00:44:35.844Z,0
2017-05-03T00:45:46.123Z,0
2017-05-03T00:46:56.097Z,0
2017-05-03T00:48:06.006Z,0
2017-05-03T00:49:15.981Z,0
2017-05-03T00:50:25.959Z,0
2017-05-03T00:51:36.237Z,0
2017-05-03T00:52:46.542Z,0
2017-05-03T00:53:57.080Z,0
2017-05-03T00:55:07.365Z,0
2017-05-03T00:56:17.647Z,0
2017-05-03T00:57:27.931Z,0
2017-05-03T00:58:38.246Z,0
2017-05-03T00:59:48.460Z,0
2017-05-03T01:00:58.737Z,0
2017-05-03T01:02:09.020Z,0
2017-05-03T01:03:19.310Z,0
2017-05-03T01:04:29.598Z,0
2017-05-03T01:05:40.137Z,0
2017-05-03T01:06:50.422Z,0
2017-05-03T01:08:00.744Z,0
2017-05-03T01:09:11.031Z,0
2017-05-03T01:10:21.316Z,0
2017-05-03T01:11:31.533Z,0
2017-05-03T01:12:41.833Z,0
2017-05-03T01:13:51.818Z,0
2017-05-03T01:15:02.112Z,0
2017-05-03T01:16:12.394Z,0
2017-05-03T01:17:22.941Z,0
2017-05-03T01:18:32.603Z,0
2017-05-03T01:19:42.883Z,0
2017-05-03T01:20:52.855Z,0
2017-05-03T01:22:03.147Z,0
2017-05-03T01:23:13.680Z,0
2017-05-03T01:24:23.970Z,0
2017-05-03T01:25:33.629Z,0
2017-05-03T01:26:43.918Z,0
2017-05-03T01:27:54.207Z,0
2017-05-03T01:29:04.134Z,0
2017-05-03T01:30:14.126Z,0
2017-05-03T01:31:24.396Z,0
2017-05-03T01:32:34.364Z,0
2017-05-03T01:33:44.662Z,0
2017-05-03T01:34:55.201Z,0
2017-05-03T01:36:05.178Z,0
2017-05-03T01:37:15.474Z,0
2017-05-03T01:38:25.767Z,0
2017-05-03T01:39:36.058Z,0
2017-05-03T01:40:46.287Z,0
2017-05-03T01:41:56.671Z,0
2017-05-03T01:43:06.355Z,0
2017-05-03T01:44:16.637Z,0
2017-05-03T01:45:26.924Z,0
2017-05-03T01:46:37.455Z,0
2017-05-03T01:47:47.434Z,0
2017-05-03T01:48:57.718Z,0
2017-05-03T01:50:07.687Z,0
2017-05-03T01:51:17.669Z,0
2017-05-03T01:52:28.206Z,0
2017-05-03T01:53:38.486Z,0
2017-05-03T01:54:48.762Z,0
2017-05-03T01:55:59.042Z,0
2017-05-03T01:57:09.323Z,0
2017-05-03T01:58:19.553Z,0
2017-05-03T01:59:29.521Z,0
2017-05-03T02:00:39.506Z,0
2017-05-03T02:01:49.475Z,0
2017-05-03T02:02:59.478Z,0
2017-05-03T02:04:10.045Z,0
2017-05-03T02:05:19.720Z,0
2017-05-03T02:06:30.000Z,0
2017-05-03T02:07:40.298Z,0
2017-05-03T02:08:50.586Z,0
2017-05-03T02:10:01.125Z,0
2017-05-03T02:11:11.091Z,0
2017-05-03T02:12:21.383Z,0
2017-05-03T02:13:31.049Z,0
2017-05-03T02:14:41.326Z,0
2017-05-03T02:15:51.867Z,0
2017-05-03T02:17:02.146Z,0
2017-05-03T02:18:12.433Z,0
2017-05-03T02:19:22.719Z,0
2017-05-03T02:20:32.703Z,0
2017-05-03T02:21:43.243Z,0
2017-05-03T02:22:53.523Z,0
2017-05-03T02:24:03.494Z,0
2017-05-03T02:25:13.776Z,0
2017-05-03T02:26:23.442Z,0
2017-05-03T02:27:33.977Z,0
2017-05-03T02:28:44.277Z,0
2017-05-03T02:29:54.573Z,0
2017-05-03T02:31:04.856Z,0
2017-05-03T02:32:14.829Z,0
2017-05-03T02:33:24.780Z,0
2017-05-03T02:34:34.745Z,0
2017-05-03T02:35:44.095Z,0
2017-05-03T02:36:54.070Z,0
2017-05-03T02:38:04.358Z,0
2017-05-03T02:39:14.578Z,0
2017-05-03T02:40:25.103Z,0
2017-05-03T02:41:35.387Z,0
2017-05-03T02:42:45.363Z,0
2017-05-03T02:43:55.653Z,0
2017-05-03T02:45:06.195Z,0
2017-05-03T02:46:16.166Z,0
2017-05-03T02:47:26.137Z,0
2017-05-03T02:48:36.417Z,0
2017-05-03T02:49:46.713Z,0
2017-05-03T02:50:57.264Z,0
2017-05-03T02:52:07.237Z,0
2017-05-03T02:53:17.514Z,0
2017-05-03T02:54:27.805Z,0
2017-05-03T02:55:38.087Z,0
2017-05-03T02:56:48.319Z,0
2017-05-03T02:57:58.292Z,0
2017-05-03T02:59:08.608Z,0
2017-05-03T03:00:18.577Z,0
2017-05-03T03:01:28.546Z,0
2017-05-03T03:02:38.458Z,0
2017-05-03T03:03:48.428Z,0
2017-05-03T03:04:58.409Z,0
2017-05-03T03:06:08.699Z,0
2017-05-03T03:07:18.053Z,0
2017-05-03T03:08:28.274Z,0
2017-05-03T03:09:38.288Z,0
2017-05-03T03:10:48.575Z,0
2017-05-03T03:11:58.870Z,0
2017-05-03T03:13:09.162Z,0
2017-05-03T03:14:19.701Z,0
2017-05-03T03:15:29.669Z,0
2017-05-03T03:16:39.958Z,0
2017-05-03T03:17:49.930Z,0
2017-05-03T03:19:00.212Z,0
2017-05-03T03:20:10.752Z,0
2017-05-03T03:21:20.745Z,0
2017-05-03T03:22:30.720Z,0
2017-05-03T03:23:40.993Z,0
2017-05-03T03:24:50.982Z,0
2017-05-03T03:26:01.513Z,0
2017-05-03T03:27:11.790Z,0
2017-05-03T03:28:21.773Z,0
2017-05-03T03:29:32.068Z,0
2017-05-03T03:30:42.033Z,0
2017-05-03T03:31:52.253Z,0
2017-05-03T03:33:02.541Z,0
2017-05-03T03:34:12.835Z,0
2017-05-03T03:35:22.506Z,0
2017-05-03T03:36:32.172Z,0
2017-05-03T03:37:42.706Z,0
2017-05-03T03:38:53.010Z,0
2017-05-03T03:40:03.302Z,0
2017-05-03T03:41:13.582Z,0
2017-05-03T03:42:23.553Z,0
2017-05-03T03:43:34.088Z,0
2017-05-03T03:44:44.061Z,0
2017-05-03T03:45:54.339Z,0
2017-05-03T03:47:04.620Z,0
2017-05-03T03:48:14.281Z,0
2017-05-03T03:49:24.193Z,0
2017-05-03T03:50:34.476Z,0
2017-05-03T03:51:44.748Z,0
2017-05-03T03:52:55.038Z,0
2017-05-03T03:54:05.315Z,0
2017-05-03T03:55:15.843Z,0
2017-05-03T03:56:26.137Z,0
2017-05-03T03:57:36.113Z,0
2017-05-03T03:58:46.391Z,0
2017-05-03T03:59:56.363Z,4
2017-05-03T04:01:06.595Z,4
2017-05-03T04:02:16.568Z,4
2017-05-03T04:03:26.543Z,4
2017-05-03T04:04:36.831Z,4
2017-05-03T04:05:46.805Z,4
2017-05-03T04:06:57.342Z,4
2017-05-03T04:08:07.328Z,4
2017-05-03T04:09:17.609Z,4
2017-05-03T04:10:27.891Z,0
2017-05-03T04:11:37.856Z,4
2017-05-03T04:12:48.074Z,4
2017-05-03T04:13:58.053Z,0
2017-05-03T04:15:08.373Z,0
2017-05-03T04:16:18.673Z,0
2017-05-03T04:17:28.951Z,0
2017-05-03T04:18:39.497Z,0
2017-05-03T04:19:49.780Z,4
2017-05-03T04:21:00.060Z,4
2017-05-03T04:22:10.339Z,164
2017-05-03T04:23:20.007Z,216
2017-05-03T04:24:30.592Z,212
2017-05-03T04:25:40.574Z,212
2017-05-03T04:26:50.853Z,192
2017-05-03T04:28:00.829Z,200
2017-05-03T04:29:10.859Z,228
2017-05-03T04:30:21.392Z,224
2017-05-03T04:31:31.366Z,220
2017-05-03T04:32:41.664Z,232
2017-05-03T04:33:51.952Z,236
2017-05-03T04:35:01.943Z,300
2017-05-03T04:36:12.501Z,288
2017-05-03T04:37:22.797Z,284
2017-05-03T04:38:32.779Z,276
2017-05-03T04:39:43.065Z,268
2017-05-03T04:40:53.341Z,296
2017-05-03T04:42:03.907Z,312
2017-05-03T04:43:13.887Z,324
2017-05-03T04:44:24.179Z,276
2017-05-03T04:45:34.471Z,248
2017-05-03T04:46:44.449Z,260
2017-05-03T04:47:55.008Z,280
2017-05-03T04:49:05.292Z,324
2017-05-03T04:50:15.586Z,352
2017-05-03T04:51:25.890Z,364
2017-05-03T04:52:36.170Z,408
2017-05-03T04:53:46.704Z,364
2017-05-03T04:54:56.690Z,372
2017-05-03T04:56:06.861Z,368
2017-05-03T04:57:16.840Z,412
2017-05-03T04:58:27.120Z,420
2017-05-03T04:59:37.342Z,440
2017-05-03T05:00:47.331Z,432
2017-05-03T05:01:57.295Z,436
2017-05-03T05:03:07.262Z,416
2017-05-03T05:04:17.237Z,444
2017-05-03T05:05:27.764Z,540
2017-05-03T05:06:37.734Z,492
2017-05-03T05:07:48.026Z,540
2017-05-03T05:08:58.009Z,412
2017-05-03T05:10:07.983Z,448
2017-05-03T05:11:18.520Z,440
2017-05-03T05:12:28.492Z,392
2017-05-03T05:13:38.781Z,444
2017-05-03T05:14:49.068Z,444
2017-05-03T05:15:59.044Z,540
2017-05-03T05:17:09.326Z,440
2017-05-03T05:18:19.608Z,520
2017-05-03T05:19:30.153Z,516
2017-05-03T05:20:40.122Z,556
2017-05-03T05:21:50.100Z,516
2017-05-03T05:23:00.634Z,504
2017-05-03T05:24:10.610Z,468
2017-05-03T05:25:20.273Z,532
2017-05-03T05:26:30.568Z,560
2017-05-03T05:27:40.850Z,540
2017-05-03T05:28:51.069Z,500
2017-05-03T05:30:01.387Z,520
2017-05-03T05:31:11.350Z,620
2017-05-03T05:32:21.324Z,604
2017-05-03T05:33:31.613Z,568
2017-05-03T05:34:42.158Z,612
2017-05-03T05:35:52.494Z,664
2017-05-03T05:37:02.775Z,752
2017-05-03T05:38:13.062Z,560
2017-05-03T05:39:23.358Z,560
2017-05-03T05:40:33.890Z,588
2017-05-03T05:41:43.858Z,628
2017-05-03T05:42:53.854Z,616
2017-05-03T05:44:04.136Z,692
2017-05-03T05:45:14.142Z,784
2017-05-03T05:46:24.358Z,748
2017-05-03T05:47:33.696Z,804
2017-05-03T05:48:43.675Z,988
2017-05-03T05:49:53.966Z,992
2017-05-03T05:51:03.943Z,916
2017-05-03T05:52:14.476Z,912
2017-05-03T05:53:24.473Z,1004
2017-05-03T05:54:34.779Z,988
2017-05-03T05:55:44.757Z,864
2017-05-03T05:56:55.037Z,1120
2017-05-03T05:58:05.308Z,1124
2017-05-03T05:59:15.599Z,1200
2017-05-03T06:00:25.583Z,1224
2017-05-03T06:01:35.866Z,1184
2017-05-03T06:02:45.865Z,1244
2017-05-03T06:03:56.412Z,968
2017-05-03T06:05:06.418Z,1104
2017-05-03T06:06:16.713Z,1084
2017-05-03T06:07:27.011Z,1104
2017-05-03T06:08:37.323Z,1020
2017-05-03T06:09:47.871Z,992
2017-05-03T06:10:57.843Z,1288
2017-05-03T06:12:07.524Z,1112
2017-05-03T06:13:17.874Z,720
2017-05-03T06:14:27.864Z,1008
2017-05-03T06:15:38.093Z,1104
2017-05-03T06:16:48.382Z,1088
2017-05-03T06:17:58.678Z,1096
2017-05-03T06:19:08.675Z,1040
2017-05-03T06:20:18.965Z,1056
2017-05-03T06:21:29.188Z,1196
2017-05-03T06:22:39.171Z,1284
2017-05-03T06:23:49.477Z,1224
2017-05-03T06:24:59.461Z,1208
2017-05-03T06:26:09.760Z,1172
2017-05-03T06:27:19.993Z,1192
2017-05-03T06:28:29.977Z,1100
2017-05-03T06:29:39.962Z,1236
2017-05-03T06:30:50.256Z,1308
2017-05-03T06:31:59.946Z,1256
2017-05-03T06:33:10.478Z,1256
2017-05-03T06:34:20.785Z,1088
2017-05-03T06:35:30.759Z,1156
2017-05-03T06:36:41.054Z,1220
2017-05-03T06:37:51.333Z,1192
2017-05-03T06:39:01.876Z,1384
2017-05-03T06:40:11.864Z,1552
2017-05-03T06:41:21.849Z,1388
2017-05-03T06:42:32.131Z,1304
2017-05-03T06:43:42.411Z,1400
2017-05-03T06:44:52.945Z,1584
2017-05-03T06:46:02.925Z,2072
2017-05-03T06:47:12.903Z,1592
2017-05-03T06:48:23.206Z,1360
2017-05-03T06:49:33.501Z,1396
2017-05-03T06:50:44.037Z,1832
2017-05-03T06:51:54.335Z,1664
2017-05-03T06:53:04.635Z,1648
2017-05-03T06:54:14.925Z,1556
2017-05-03T06:55:25.234Z,1644
2017-05-03T06:56:35.487Z,1416
2017-05-03T06:57:45.778Z,1304
2017-05-03T06:58:55.756Z,1444
2017-05-03T07:00:06.064Z,1552
2017-05-03T07:01:16.047Z,2556
2017-05-03T07:02:26.653Z,2320
2017-05-03T07:03:36.964Z,1996
2017-05-03T07:04:47.257Z,1568
2017-05-03T07:05:57.569Z,1548
2017-05-03T07:07:07.544Z,1532
2017-05-03T07:08:18.083Z,1700
2017-05-03T07:09:28.367Z,1776
2017-05-03T07:10:38.656Z,1944
2017-05-03T07:11:48.939Z,1792
2017-05-03T07:12:58.928Z,1876
2017-05-03T07:14:09.167Z,1820
2017-05-03T07:15:19.454Z,1760
2017-05-03T07:16:29.758Z,1856
2017-05-03T07:17:39.775Z,2172
2017-05-03T07:18:50.073Z,2176
2017-05-03T07:20:00.628Z,2400
2017-05-03T07:21:10.913Z,2216
2017-05-03T07:22:20.888Z,3068
2017-05-03T07:23:31.205Z,2872
2017-05-03T07:24:41.499Z,2112
2017-05-03T07:25:51.772Z,1964
2017-05-03T07:27:01.772Z,2136
2017-05-03T07:28:12.056Z,2108
2017-05-03T07:29:22.371Z,2380
2017-05-03T07:30:32.653Z,2248
2017-05-03T07:31:42.560Z,2564
2017-05-03T07:32:52.879Z,2272
2017-05-03T07:34:03.164Z,2288
2017-05-03T07:35:13.445Z,2500
2017-05-03T07:36:23.741Z,2324
2017-05-03T07:37:33.990Z,2172
2017-05-03T07:38:43.968Z,2024
2017-05-03T07:39:53.980Z,1960
2017-05-03T07:41:04.343Z,2072
2017-05-03T07:42:14.685Z,1996
2017-05-03T07:43:25.234Z,1960
2017-05-03T07:44:35.527Z,2224
2017-05-03T07:45:45.813Z,2056
2017-05-03T07:46:56.114Z,2188
2017-05-03T07:48:06.139Z,2168
2017-05-03T07:49:16.372Z,2108
2017-05-03T07:50:26.668Z,2280
2017-05-03T07:51:36.346Z,2308
2017-05-03T07:52:46.013Z,2136
2017-05-03T07:53:56.316Z,2472
2017-05-03T07:55:06.865Z,2584
2017-05-03T07:56:17.149Z,3520
2017-05-03T07:57:27.449Z,3120
2017-05-03T07:58:37.450Z,2848
2017-05-03T07:59:47.431Z,2908
2017-05-03T08:00:57.362Z,2984
2017-05-03T08:02:07.337Z,3216
2017-05-03T08:03:17.634Z,2784
2017-05-03T08:04:27.626Z,2656
2017-05-03T08:05:37.958Z,2668
2017-05-03T08:06:48.504Z,2600
2017-05-03T08:07:58.808Z,2536
2017-05-03T08:09:08.479Z,2628
2017-05-03T08:10:18.183Z,2952
2017-05-03T08:11:28.495Z,3320
2017-05-03T08:12:38.723Z,3096
2017-05-03T08:13:49.036Z,3072
2017-05-03T08:14:59.360Z,3504
2017-05-03T08:16:09.673Z,3508
2017-05-03T08:17:19.974Z,2948
2017-05-03T08:18:30.519Z,2816
2017-05-03T08:19:40.500Z,2664
2017-05-03T08:20:50.506Z,2644
2017-05-03T08:22:00.198Z,2732
2017-05-03T08:23:09.567Z,2680
2017-05-03T08:24:20.136Z,2928
2017-05-03T08:25:30.426Z,2980
2017-05-03T08:26:40.747Z,2772
2017-05-03T08:27:50.745Z,3068
2017-05-03T08:29:01.105Z,2916
2017-05-03T08:30:11.646Z,3104
2017-05-03T08:31:21.937Z,2864
2017-05-03T08:32:31.910Z,2928
2017-05-03T08:33:42.207Z,3016
2017-05-03T08:34:52.516Z,2824
2017-05-03T08:36:03.062Z,3100
2017-05-03T08:37:13.353Z,3288
2017-05-03T08:38:23.645Z,3316
2017-05-03T08:39:33.946Z,3364
2017-05-03T08:40:44.252Z,3708
2017-05-03T08:41:54.519Z,3912
2017-05-03T08:43:04.500Z,3756
2017-05-03T08:44:14.493Z,3776
2017-05-03T08:45:24.783Z,3712
2017-05-03T08:46:34.766Z,3964
2017-05-03T08:47:45.302Z,3880
2017-05-03T08:48:55.603Z,3660
2017-05-03T08:50:06.143Z,3532
2017-05-03T08:51:16.159Z,3524
2017-05-03T08:52:26.480Z,3556
2017-05-03T08:53:37.054Z,3656
2017-05-03T08:54:47.374Z,3784
2017-05-03T08:55:57.905Z,3736
2017-05-03T08:57:08.200Z,3744
2017-05-03T08:58:18.225Z,3684
2017-05-03T08:59:28.457Z,3748
2017-05-03T09:00:38.742Z,3936
2017-05-03T09:01:49.029Z,4032
2017-05-03T09:02:59.025Z,4176
2017-05-03T09:04:09.327Z,3576
2017-05-03T09:05:19.858Z,4048
2017-05-03T09:06:30.155Z,4392
2017-05-03T09:07:40.445Z,4432
2017-05-03T09:08:50.743Z,4540
2017-05-03T09:10:00.737Z,4452
2017-05-03T09:11:11.316Z,3872
2017-05-03T09:12:21.614Z,4360
2017-05-03T09:13:31.909Z,4372
2017-05-03T09:14:41.582Z,4236
2017-05-03T09:15:51.891Z,4220
2017-05-03T09:17:02.120Z,4376
2017-05-03T09:18:12.409Z,4276
2017-05-03T09:19:22.431Z,4056
2017-05-03T09:20:32.436Z,4196
2017-05-03T09:21:42.420Z,4412
2017-05-03T09:22:52.974Z,4096
2017-05-03T09:24:02.949Z,4372
2017-05-03T09:25:12.617Z,4220
2017-05-03T09:26:22.915Z,4372
2017-05-03T09:27:32.581Z,4508
2017-05-03T09:28:42.802Z,4356
2017-05-03T09:29:52.791Z,4288
2017-05-03T09:31:03.091Z,4044
2017-05-03T09:32:13.385Z,3692
2017-05-03T09:33:23.691Z,3884
2017-05-03T09:34:33.931Z,4364
2017-05-03T09:35:44.224Z,4284
2017-05-03T09:36:54.505Z,4176
2017-05-03T09:38:04.492Z,4180
2017-05-03T09:39:14.485Z,4116
2017-05-03T09:40:24.777Z,3940
2017-05-03T09:41:35.074Z,3740
2017-05-03T09:42:45.374Z,4392
2017-05-03T09:43:55.657Z,3064
2017-05-03T09:45:05.958Z,2640
2017-05-03T09:46:15.879Z,2760
2017-05-03T09:47:25.867Z,2540
2017-05-03T09:48:36.178Z,2752
2017-05-03T09:49:46.475Z,2976
2017-05-03T09:50:56.773Z,2992
2017-05-03T09:52:07.031Z,3412
2017-05-03T09:53:17.333Z,3736
2017-05-03T09:54:27.693Z,3276
2017-05-03T09:55:37.376Z,3624
2017-05-03T09:56:47.357Z,3812
2017-05-03T09:57:57.904Z,3336
2017-05-03T09:59:08.226Z,3172
2017-05-03T10:00:18.219Z,3264
2017-05-03T10:01:28.506Z,3616
2017-05-03T10:02:38.801Z,3392
2017-05-03T10:03:49.392Z,2936
2017-05-03T10:04:59.642Z,3780
2017-05-03T10:06:09.943Z,3908
2017-05-03T10:07:19.937Z,3068
2017-05-03T10:08:30.234Z,2580
2017-05-03T10:09:40.470Z,2808
2017-05-03T10:10:50.665Z,2420
2017-05-03T10:12:00.339Z,2860
2017-05-03T10:13:10.344Z,2644
2017-05-03T10:14:20.675Z,2772
2017-05-03T10:15:31.220Z,3168
2017-05-03T10:16:41.507Z,3436
2017-05-03T10:17:51.806Z,3880
2017-05-03T10:19:01.798Z,4100
2017-05-03T10:20:11.793Z,4384
2017-05-03T10:21:22.368Z,3936
2017-05-03T10:22:32.667Z,3100
2017-05-03T10:23:42.673Z,2340
2017-05-03T10:24:52.361Z,2216
2017-05-03T10:26:02.074Z,2204
2017-05-03T10:27:12.656Z,2380
2017-05-03T10:28:22.960Z,2068
2017-05-03T10:29:33.462Z,2192
2017-05-03T10:30:43.434Z,2352
2017-05-03T10:31:53.418Z,2452
2017-05-03T10:33:03.959Z,2432
2017-05-03T10:34:13.950Z,2980
2017-05-03T10:35:24.246Z,2580
2017-05-03T10:36:34.226Z,2512
2017-05-03T10:37:44.233Z,2596
2017-05-03T10:38:54.776Z,2584
2017-05-03T10:40:04.772Z,2916
2017-05-03T10:41:14.769Z,2728
2017-05-03T10:42:24.436Z,2580
2017-05-03T10:43:34.750Z,2540
2017-05-03T10:44:45.011Z,2232
2017-05-03T10:45:55.305Z,2120
2017-05-03T10:47:05.615Z,2140
2017-05-03T10:48:15.585Z,2480
2017-05-03T10:49:25.888Z,2208
2017-05-03T10:50:36.120Z,2696
2017-05-03T10:51:46.400Z,3212
2017-05-03T10:52:56.707Z,3812
2017-05-03T10:54:06.999Z,3644
2017-05-03T10:55:16.976Z,3344
2017-05-03T10:56:27.539Z,3324
2017-05-03T10:57:37.826Z,3384
2017-05-03T10:58:48.133Z,3156
2017-05-03T10:59:58.438Z,3416
2017-05-03T11:01:08.733Z,3260
2017-05-03T11:02:19.273Z,3436
2017-05-03T11:03:29.254Z,3320
2017-05-03T11:04:39.558Z,3380
2017-05-03T11:05:49.845Z,3704
2017-05-03T11:07:00.128Z,3992
2017-05-03T11:08:10.369Z,3528
2017-05-03T11:09:20.652Z,3408
2017-05-03T11:10:30.629Z,3080
2017-05-03T11:11:40.924Z,3276
2017-05-03T11:12:51.251Z,3136
2017-05-03T11:14:01.500Z,2976
2017-05-03T11:15:11.162Z,3108
2017-05-03T11:16:21.448Z,3336
2017-05-03T11:17:31.821Z,3012
2017-05-03T11:18:41.879Z,2704
2017-05-03T11:19:52.466Z,2332
2017-05-03T11:21:02.779Z,2284
2017-05-03T11:22:12.456Z,2912
2017-05-03T11:23:22.141Z,3112
2017-05-03T11:24:32.125Z,3840
2017-05-03T11:25:42.660Z,3536
2017-05-03T11:26:52.959Z,3248
2017-05-03T11:28:03.261Z,2860
2017-05-03T11:29:13.269Z,3180
2017-05-03T11:30:23.571Z,3204
2017-05-03T11:31:33.807Z,2828
2017-05-03T11:32:44.113Z,3024
2017-05-03T11:33:54.403Z,3964
2017-05-03T11:35:04.698Z,3628
2017-05-03T11:36:14.673Z,3568
2017-05-03T11:37:25.218Z,3360
2017-05-03T11:38:35.533Z,3340
2017-05-03T11:39:45.829Z,3648
2017-05-03T11:40:56.112Z,4068
2017-05-03T11:42:06.124Z,3156
2017-05-03T11:43:16.688Z,3332
2017-05-03T11:44:26.382Z,3564
2017-05-03T11:45:36.373Z,3524
2017-05-03T11:46:46.662Z,3712
2017-05-03T11:47:56.950Z,2924
2017-05-03T11:49:07.506Z,3068
2017-05-03T11:50:17.487Z,3120
2017-05-03T11:51:27.767Z,2700
2017-05-03T11:52:37.749Z,3176
2017-05-03T11:53:47.724Z,4000
2017-05-03T11:54:58.303Z,4004
2017-05-03T11:56:08.640Z,3668
2017-05-03T11:57:18.959Z,2984
2017-05-03T11:58:28.948Z,3292
2017-05-03T11:59:39.255Z,3168
2017-05-03T12:00:49.485Z,3504
2017-05-03T12:01:59.463Z,3020
2017-05-03T12:03:09.461Z,3172
2017-05-03T12:04:19.747Z,3296
2017-05-03T12:05:29.762Z,3500
2017-05-03T12:06:40.311Z,3088
2017-05-03T12:07:50.322Z,3004
2017-05-03T12:09:00.616Z,2872
2017-05-03T12:10:10.611Z,3428
2017-05-03T12:11:20.904Z,2928
2017-05-03T12:12:31.436Z,2476
2017-05-03T12:13:41.443Z,2468
2017-05-03T12:14:51.440Z,2712
2017-05-03T12:16:01.736Z,2852
2017-05-03T12:17:11.719Z,2800
2017-05-03T12:18:22.265Z,3148
2017-05-03T12:19:32.238Z,3372
2017-05-03T12:20:41.588Z,3560
2017-05-03T12:21:51.635Z,3164
2017-05-03T12:23:01.949Z,2784
2017-05-03T12:24:12.188Z,3196
2017-05-03T12:25:22.491Z,3372
2017-05-03T12:26:32.479Z,2952
2017-05-03T12:27:42.764Z,2732
2017-05-03T12:28:52.746Z,2280
2017-05-03T12:30:03.519Z,2380
2017-05-03T12:31:13.183Z,2596
2017-05-03T12:32:23.486Z,2780
2017-05-03T12:33:33.475Z,2592
2017-05-03T12:34:43.442Z,2972
2017-05-03T12:35:54.215Z,3580
2017-05-03T12:37:04.510Z,3088
2017-05-03T12:38:14.490Z,2932
2017-05-03T12:39:24.477Z,2756
2017-05-03T12:40:34.779Z,3364
2017-05-03T12:41:44.697Z,3252
2017-05-03T12:42:54.695Z,2712
2017-05-03T12:44:04.672Z,2568
2017-05-03T12:45:14.959Z,2836
2017-05-03T12:46:24.958Z,2628
2017-05-03T12:47:35.511Z,2696
2017-05-03T12:48:45.503Z,2420
2017-05-03T12:49:55.823Z,2984
2017-05-03T12:51:05.808Z,2984
2017-05-03T12:52:16.108Z,2672
2017-05-03T12:53:26.671Z,2228
2017-05-03T12:54:36.965Z,2068
2017-05-03T12:55:47.272Z,2108
2017-05-03T12:56:57.571Z,2576
2017-05-03T12:58:07.862Z,3392
2017-05-03T12:59:18.409Z,3724
2017-05-03T13:00:28.399Z,2872
2017-05-03T13:01:37.770Z,2220
2017-05-03T13:02:47.750Z,1656
2017-05-03T13:03:58.063Z,1560
2017-05-03T13:05:08.319Z,1732
2017-05-03T13:06:18.342Z,1808
2017-05-03T13:07:28.650Z,2156
2017-05-03T13:08:38.960Z,2748
2017-05-03T13:09:48.939Z,3128
2017-05-03T13:10:59.487Z,3620
2017-05-03T13:12:09.465Z,3324
2017-05-03T13:13:19.440Z,3332
2017-05-03T13:14:29.726Z,3972
2017-05-03T13:15:40.049Z,3852
2017-05-03T13:16:50.605Z,3740
2017-05-03T13:18:00.589Z,3136
2017-05-03T13:19:10.559Z,3132
2017-05-03T13:20:20.845Z,3144
2017-05-03T13:21:31.152Z,3172
2017-05-03T13:22:41.401Z,3016
2017-05-03T13:23:51.069Z,2668
2017-05-03T13:25:01.472Z,2592
2017-05-03T13:26:11.448Z,2536
2017-05-03T13:27:21.749Z,3300
2017-05-03T13:28:32.006Z,3428
2017-05-03T13:29:42.298Z,2724
2017-05-03T13:30:52.284Z,1936
2017-05-03T13:32:02.596Z,1608
2017-05-03T13:33:12.884Z,1496
2017-05-03T13:34:23.114Z,1404
2017-05-03T13:35:33.106Z,1344
2017-05-03T13:36:43.402Z,1644
2017-05-03T13:37:53.706Z,2244
2017-05-03T13:39:03.691Z,2544
2017-05-03T13:40:13.929Z,2844
2017-05-03T13:41:24.218Z,2812
2017-05-03T13:42:34.528Z,2980
2017-05-03T13:43:44.848Z,3208
2017-05-03T13:44:55.139Z,3168
2017-05-03T13:46:05.412Z,3140
2017-05-03T13:47:15.708Z,3000
2017-05-03T13:48:26.010Z,2288
2017-05-03T13:49:36.290Z,1644
2017-05-03T13:50:46.293Z,1332
2017-05-03T13:51:56.522Z,1564
2017-05-03T13:53:06.806Z,1980
2017-05-03T13:54:17.141Z,2276
2017-05-03T13:55:27.468Z,2492
2017-05-03T13:56:37.779Z,2692
2017-05-03T13:57:48.343Z,2656
2017-05-03T13:58:58.027Z,2732
2017-05-03T14:00:08.319Z,2736
2017-05-03T14:01:18.312Z,2768
2017-05-03T14:02:28.610Z,2816
2017-05-03T14:03:39.158Z,2776
2017-05-03T14:04:49.151Z,2612
2017-05-03T14:05:59.454Z,2484
2017-05-03T14:07:09.748Z,2312
2017-05-03T14:08:20.046Z,2364
2017-05-03T14:09:30.828Z,2320
2017-05-03T14:10:40.798Z,2012
2017-05-03T14:11:51.095Z,2148
2017-05-03T14:13:01.389Z,2188
2017-05-03T14:14:11.376Z,2248
2017-05-03T14:15:21.595Z,2196
2017-05-03T14:16:31.889Z,2080
2017-05-03T14:17:41.871Z,1904
2017-05-03T14:18:52.183Z,2164
2017-05-03T14:20:02.474Z,1956
2017-05-03T14:21:13.071Z,2144
2017-05-03T14:22:23.051Z,1924
2017-05-03T14:23:33.029Z,2040
2017-05-03T14:24:43.005Z,2152
2017-05-03T14:25:53.091Z,2224
2017-05-03T14:27:03.654Z,2148
2017-05-03T14:28:13.634Z,2140
2017-05-03T14:29:23.933Z,2212
2017-05-03T14:30:34.234Z,2328
2017-05-03T14:31:44.257Z,2204
2017-05-03T14:32:54.499Z,2252
2017-05-03T14:34:04.480Z,2228
2017-05-03T14:35:14.769Z,2156
2017-05-03T14:36:25.097Z,1772
2017-05-03T14:37:35.074Z,1824
2017-05-03T14:38:45.301Z,1528
2017-05-03T14:39:55.606Z,1512
2017-05-03T14:41:05.586Z,1292
2017-05-03T14:42:15.886Z,1312
2017-05-03T14:43:25.553Z,1512
2017-05-03T14:44:36.106Z,1696
2017-05-03T14:45:46.405Z,2024
2017-05-03T14:46:56.709Z,1740
2017-05-03T14:48:06.694Z,1604
2017-05-03T14:49:16.996Z,1764
2017-05-03T14:50:27.226Z,1772
2017-05-03T14:51:37.515Z,1872
2017-05-03T14:52:47.814Z,1908
2017-05-03T14:53:58.101Z,1900
2017-05-03T14:55:07.765Z,2032
2017-05-03T14:56:18.315Z,2092
2017-05-03T14:57:28.617Z,2096
2017-05-03T14:58:38.926Z,2060
2017-05-03T14:59:48.905Z,2060
2017-05-03T15:00:58.884Z,2112
2017-05-03T15:02:09.805Z,2168
2017-05-03T15:03:19.780Z,2116
2017-05-03T15:04:30.076Z,1904
2017-05-03T15:05:40.373Z,1736
2017-05-03T15:06:50.365Z,2100
2017-05-03T15:08:00.911Z,1996
2017-05-03T15:09:10.902Z,2084
2017-05-03T15:10:20.570Z,2044
2017-05-03T15:11:30.881Z,2072
2017-05-03T15:12:40.874Z,1984
2017-05-03T15:13:51.124Z,2160
2017-05-03T15:15:01.425Z,1848
2017-05-03T15:16:11.723Z,1980
2017-05-03T15:17:21.407Z,1812
2017-05-03T15:18:31.404Z,1828
2017-05-03T15:19:41.327Z,1812
2017-05-03T15:20:51.653Z,1648
2017-05-03T15:22:01.653Z,1460
2017-05-03T15:23:12.003Z,1348
2017-05-03T15:24:22.315Z,1356
2017-05-03T15:25:32.903Z,1300
2017-05-03T15:26:43.218Z,1176
2017-05-03T15:27:52.913Z,1272
2017-05-03T15:29:02.934Z,1124
2017-05-03T15:30:12.934Z,1216
2017-05-03T15:31:23.181Z,1204
2017-05-03T15:32:33.302Z,1160
2017-05-03T15:33:43.310Z,1204
2017-05-03T15:34:53.636Z,1120
2017-05-03T15:36:03.962Z,1052
2017-05-03T15:37:14.551Z,1152
2017-05-03T15:38:24.867Z,1248
2017-05-03T15:39:34.866Z,1340
2017-05-03T15:40:45.188Z,1424
2017-05-03T15:41:55.511Z,1488
2017-05-03T15:43:05.459Z,1500
2017-05-03T15:44:15.538Z,1448
2017-05-03T15:45:25.850Z,1532
2017-05-03T15:46:36.166Z,1636
2017-05-03T15:47:46.465Z,1536
2017-05-03T15:48:56.749Z,1472
2017-05-03T15:50:07.089Z,1464
2017-05-03T15:51:17.402Z,1520
2017-05-03T15:52:27.762Z,1536
2017-05-03T15:53:38.050Z,1480
2017-05-03T15:54:48.314Z,1572
2017-05-03T15:55:58.648Z,1576
2017-05-03T15:57:08.975Z,1744
2017-05-03T15:58:18.971Z,1772
2017-05-03T15:59:29.294Z,1716
2017-05-03T16:00:39.584Z,1528
2017-05-03T16:01:49.598Z,1368
2017-05-03T16:02:59.916Z,1380